createdAt,value
2023-07-06T00:15:22.400Z,270
2023-07-06T00:35:22.410Z,270
2023-07-06T00:55:22.459Z,267
2023-07-06T01:15:22.466Z,267
2023-07-06T01:35:22.485Z,267
2023-07-06T01:55:22.531Z,266
2023-07-06T02:15:22.539Z,265
2023-07-06T02:35:22.537Z,262
2023-07-06T02:55:22.592Z,256
2023-07-06T03:15:22.614Z,246
2023-07-06T03:35:22.627Z,237
2023-07-06T03:55:22.651Z,231
2023-07-06T04:15:22.678Z,224
2023-07-06T04:35:22.714Z,225
2023-07-06T04:55:22.773Z,227
2023-07-06T05:35:22.789Z,265
2023-07-06T05:55:22.837Z,269
2023-07-06T06:15:22.862Z,271
2023-07-06T06:35:22.889Z,276
2023-07-06T06:55:22.901Z,273
2023-07-06T07:15:22.922Z,272
2023-07-06T07:35:22.954Z,274
2023-07-06T07:55:22.981Z,276
2023-07-06T08:15:23.023Z,275
2023-07-06T08:35:23.480Z,280
2023-07-06T09:15:23.025Z,276
2023-07-06T09:35:23.064Z,280
2023-07-06T10:15:23.137Z,264
2023-07-06T10:35:23.028Z,262
2023-07-06T10:55:23.033Z,248
2023-07-06T11:15:23.162Z,244
2023-07-06T11:35:23.177Z,241
2023-07-06T11:55:23.172Z,234
2023-07-06T12:15:23.099Z,233
2023-07-06T12:35:23.128Z,251
2023-07-06T12:55:24.171Z,265
2023-07-06T13:15:23.174Z,260
2023-07-06T13:35:23.083Z,267
2023-07-06T13:55:23.166Z,261
2023-07-06T14:15:23.194Z,263
2023-07-06T14:35:23.206Z,260
2023-07-06T14:55:23.121Z,255
2023-07-06T15:15:23.251Z,256
2023-07-06T15:35:23.255Z,261
2023-07-06T15:55:23.296Z,268
2023-07-06T16:15:23.277Z,258
2023-07-06T16:35:23.299Z,268
2023-07-06T16:55:23.293Z,261
2023-07-06T17:15:23.354Z,254
2023-07-06T17:35:23.381Z,241
2023-07-06T18:15:23.386Z,234
2023-07-06T19:15:23.358Z,239
2023-07-06T19:35:23.545Z,242
2023-07-06T19:55:23.569Z,247
2023-07-06T20:15:23.607Z,247
2023-07-06T20:35:30.587Z,249
2023-07-06T20:55:23.604Z,250
2023-07-06T21:15:23.432Z,250
2023-07-06T21:35:23.692Z,251
2023-07-06T21:55:23.676Z,252
2023-07-06T22:55:23.765Z,252
2023-07-06T23:15:23.790Z,248
2023-07-06T23:35:23.818Z,240
2023-07-06T23:55:23.849Z,231
